Time;durP1;ratioP1;P1;durP2;ratioP2;P2;SDS_P1;SDS_P2;PMS_P1;PMS_P2;Temp;Humidity;BMP_temperature;BMP_pressure;BME280_temperature;BME280_humidity;BME280_pressure;Samples;Min_cycle;Max_cycle;Signal;HPM_P1;HPM_P2
2022/08/15 00:00:07;;;;;;;;;;;21.00;99.90;21.00;98833.00;;;;337479;28;83586;-87
2022/08/15 00:00:37;;;;;;;;;;;20.90;99.90;21.00;98833.00;;;;337404;28;91549;-87
2022/08/15 00:00:56;;;;;;;;;;;20.90;99.90;20.90;98833.00;;;;336515;28;82481;-86
2022/08/15 00:01:09;;;;;;;;;;;20.90;99.90;21.00;98835.00;;;;337215;28;93331;-87
2022/08/15 00:01:23;;;;;;;;;;;20.90;99.90;20.90;98829.00;;;;339092;28;82526;-87
2022/08/15 00:01:36;;;;;;;;;;;20.90;99.90;20.90;98828.00;;;;339978;28;91316;-87
2022/08/15 00:01:55;;;;;;;;;;;20.90;99.90;20.80;98834.00;;;;341925;28;83279;-87
2022/08/15 00:02:08;;;;;;;;;;;20.90;99.90;20.80;98832.00;;;;338562;28;92101;-87
2022/08/15 00:02:43;;;;;;;;;;;20.90;99.90;21.00;98836.00;;;;339035;28;83228;-86
2022/08/15 00:03:01;;;;;;;;;;;20.90;99.90;21.10;98837.00;;;;338361;28;92232;-87
2022/08/15 00:03:23;;;;;;;;;;;20.90;99.90;21.20;98837.00;;;;337589;28;83432;-87
2022/08/15 00:03:57;;;;;;;;;;;20.90;99.90;21.00;98827.00;;;;338664;28;91425;-86
2022/08/15 00:04:15;;;;;;;;;;;20.90;99.90;20.90;98835.00;;;;337849;28;82453;-87
2022/08/15 00:04:45;;;;;;;;;;;20.90;99.90;20.80;98840.00;;;;337340;28;90414;-86
2022/08/15 00:05:01;;;;;;;;;;;20.90;99.90;20.80;98836.00;;;;340479;28;83566;-86
2022/08/15 00:05:19;;;;;;;;;;;20.90;99.90;20.90;98837.00;;;;337359;28;91256;-87
2022/08/15 00:05:33;;;;;;;;;;;20.90;99.90;20.90;98843.00;;;;337832;28;84115;-86
2022/08/15 00:05:48;;;;;;;;;;;20.90;99.90;21.00;98837.00;;;;337413;28;89191;-86
2022/08/15 00:06:05;;;;;;;;;;;20.90;99.90;21.00;98839.00;;;;337748;28;83467;-86
2022/08/15 00:06:42;;;;;;;;;;;20.90;99.90;21.00;98839.00;;;;338698;28;91496;-87
2022/08/15 00:06:59;;;;;;;;;;;20.90;99.90;21.00;98826.00;;;;338741;28;83534;-87
2022/08/15 00:07:12;;;;;;;;;;;20.90;99.90;21.10;98834.00;;;;339929;28;91773;-86
2022/08/15 00:07:28;;;;;;;;;;;20.90;99.90;21.10;98836.00;;;;339120;28;82917;-87
2022/08/15 00:07:59;;;;;;;;;;;20.90;99.90;21.10;98834.00;;;;338643;28;92611;-87
2022/08/15 00:08:11;;;;;;;;;;;21.00;99.90;21.00;98833.00;;;;337784;28;83148;-87
2022/08/15 00:08:48;;;;;;;;;;;20.90;99.90;20.90;98833.00;;;;344313;28;90361;-87
2022/08/15 00:09:08;;;;;;;;;;;20.90;99.90;20.90;98828.00;;;;346131;28;83315;-87
2022/08/15 00:09:22;;;;;;;;;;;20.90;99.90;20.80;98839.00;;;;344213;28;91599;-86
2022/08/15 00:09:34;;;;;;;;;;;20.90;99.90;21.00;98834.00;;;;338815;28;85240;-86
2022/08/15 00:10:07;;;;;;;;;;;20.90;99.90;20.90;98842.00;;;;337366;28;90352;-87
2022/08/15 00:10:41;;;;;;;;;;;20.90;99.90;21.00;98834.00;;;;340431;28;82534;-87
2022/08/15 00:11:19;;;;;;;;;;;20.90;99.90;20.90;98833.00;;;;338705;28;91532;-87
2022/08/15 00:11:37;;;;;;;;;;;20.90;99.90;20.90;98832.00;;;;339178;28;83392;-88
2022/08/15 00:11:51;;;;;;;;;;;20.90;99.90;20.90;98833.00;;;;339895;28;93239;-87
2022/08/15 00:12:04;;;;;;;;;;;20.90;99.90;21.00;98828.00;;;;339087;28;83411;-86
2022/08/15 00:12:17;;;;;;;;;;;20.90;99.90;20.90;98822.00;;;;338613;28;91935;-86
2022/08/15 00:12:46;;;;;;;;;;;20.80;99.90;20.80;98831.00;;;;341830;28;83278;-87
2022/08/15 00:13:01;;;;;;;;;;;20.90;99.90;20.80;98829.00;;;;341367;28;87936;-87
2022/08/15 00:13:28;;;;;;;;;;;20.80;99.90;20.90;98834.00;;;;340330;28;83495;-87
2022/08/15 00:13:54;;;;;;;;;;;20.80;99.90;20.80;98838.00;;;;338793;28;87722;-87
2022/08/15 00:14:26;;;;;;;;;;;20.80;99.90;20.90;98833.00;;;;339124;28;83403;-87
2022/08/15 00:14:42;;;;;;;;;;;20.80;99.90;20.80;98833.00;;;;339952;28;91536;-87
2022/08/15 00:14:54;;;;;;;;;;;20.80;99.90;20.80;98828.00;;;;340420;28;82332;-87
2022/08/15 00:15:08;;;;;;;;;;;20.80;99.90;20.80;98826.00;;;;339878;28;92089;-87
2022/08/15 00:15:20;;;;;;;;;;;20.80;99.90;20.90;98833.00;;;;339144;28;83295;-87
2022/08/15 00:15:45;;;;;;;;;;;20.80;99.90;21.00;98833.00;;;;337398;28;89035;-87
2022/08/15 00:15:57;;;;;;;;;;;20.80;99.90;21.00;98826.00;;;;336458;28;82257;-87
2022/08/15 00:16:09;;;;;;;;;;;20.80;99.90;21.00;98823.00;;;;338767;28;90255;-87
2022/08/15 00:16:36;;;;;;;;;;;20.80;99.90;20.90;98828.00;;;;340449;28;83342;-87
2022/08/15 00:16:48;;;;;;;;;;;20.80;99.90;20.90;98829.00;;;;339785;28;92164;-87
2022/08/15 00:17:07;;;;;;;;;;;20.80;99.90;20.90;98820.00;;;;336406;28;82691;-87
2022/08/15 00:17:22;;;;;;;;;;;20.80;99.90;20.90;98824.00;;;;337469;28;89134;-87
2022/08/15 00:17:55;;;;;;;;;;;20.80;99.90;21.00;98824.00;;;;339452;28;83363;-86
2022/08/15 00:18:07;;;;;;;;;;;20.80;99.90;21.00;98826.00;;;;340006;28;91256;-87
2022/08/15 00:18:22;;;;;;;;;;;20.80;99.90;20.90;98826.00;;;;340380;28;83472;-87
2022/08/15 00:18:34;;;;;;;;;;;20.80;99.90;21.00;98824.00;;;;337432;28;89297;-87
2022/08/15 00:18:48;;;;;;;;;;;20.80;99.90;20.90;98825.00;;;;340507;28;82407;-87
2022/08/15 00:19:01;;;;;;;;;;;20.80;99.90;20.90;98825.00;;;;339940;28;90901;-87
2022/08/15 00:19:29;;;;;;;;;;;20.80;99.90;21.00;98828.00;;;;338979;28;82527;-87
2022/08/15 00:19:47;;;;;;;;;;;20.80;99.90;21.10;98827.00;;;;339492;28;91804;-87
2022/08/15 00:19:59;;;;;;;;;;;20.90;99.90;21.20;98828.00;;;;339114;28;83447;-86
2022/08/15 00:20:11;;;;;;;;;;;20.80;99.90;21.00;98826.00;;;;338706;28;90152;-86
2022/08/15 00:20:33;;;;;;;;;;;20.80;99.90;21.00;98824.00;;;;340368;28;84027;-87
2022/08/15 00:20:46;;;;;;;;;;;20.80;99.90;21.10;98824.00;;;;341291;28;90069;-87
2022/08/15 00:21:02;;;;;;;;;;;20.80;99.90;21.00;98826.00;;;;339013;28;82571;-87
2022/08/15 00:21:17;;;;;;;;;;;20.90;99.90;21.00;98822.00;;;;342642;28;91148;-87
2022/08/15 00:21:33;;;;;;;;;;;20.80;99.90;20.90;98826.00;;;;340203;28;83469;-87
2022/08/15 00:21:48;;;;;;;;;;;20.80;99.90;20.90;98826.00;;;;338670;28;91988;-87
2022/08/15 00:22:05;;;;;;;;;;;20.80;99.90;20.90;98825.00;;;;343143;28;83412;-87
2022/08/15 00:22:29;;;;;;;;;;;20.80;99.90;21.00;98824.00;;;;340046;28;88922;-87
2022/08/15 00:22:48;;;;;;;;;;;20.80;99.90;21.00;98826.00;;;;343033;27;82601;-87
2022/08/15 00:23:02;;;;;;;;;;;20.90;99.90;21.10;98821.00;;;;339823;28;92023;-87
2022/08/15 00:23:14;;;;;;;;;;;20.90;99.90;21.00;98826.00;;;;339242;28;83251;-87
2022/08/15 00:23:29;;;;;;;;;;;20.90;99.90;21.00;98825.00;;;;339913;28;92229;-88
2022/08/15 00:23:41;;;;;;;;;;;20.90;99.90;21.00;98826.00;;;;339005;28;83335;-87
2022/08/15 00:23:55;;;;;;;;;;;20.90;99.90;21.00;98827.00;;;;339991;28;92219;-87
2022/08/15 00:24:08;;;;;;;;;;;20.80;99.90;21.00;98823.00;;;;340453;28;82383;-87
2022/08/15 00:24:33;;;;;;;;;;;20.90;99.90;20.90;98826.00;;;;338742;28;89298;-87
2022/08/15 00:24:47;;;;;;;;;;;20.90;99.90;20.90;98826.00;;;;340429;28;83430;-87
2022/08/15 00:25:03;;;;;;;;;;;20.80;99.90;21.00;98825.00;;;;337396;28;88794;-87
2022/08/15 00:25:16;;;;;;;;;;;20.90;99.90;21.00;98820.00;;;;339167;28;82339;-87
2022/08/15 00:25:29;;;;;;;;;;;20.90;99.90;21.00;98824.00;;;;337243;28;91520;-87
2022/08/15 00:25:47;;;;;;;;;;;20.90;99.90;21.00;98822.00;;;;339091;28;82562;-87
2022/08/15 00:26:09;;;;;;;;;;;20.90;99.90;21.00;98826.00;;;;338573;28;92526;-87
2022/08/15 00:26:40;;;;;;;;;;;20.80;99.90;21.00;98827.00;;;;340467;28;83379;-87
2022/08/15 00:27:07;;;;;;;;;;;20.90;99.90;21.00;98816.00;;;;339875;28;92596;-87
2022/08/15 00:27:23;;;;;;;;;;;20.80;99.90;21.10;98824.00;;;;339107;28;83444;-87
2022/08/15 00:27:36;;;;;;;;;;;20.80;99.90;21.00;98819.00;;;;338578;28;92336;-87
2022/08/15 00:27:51;;;;;;;;;;;20.80;99.90;20.90;98814.00;;;;337877;28;83298;-87
2022/08/15 00:28:06;;;;;;;;;;;20.80;99.90;20.90;98816.00;;;;340056;28;87708;-87
2022/08/15 00:28:21;;;;;;;;;;;20.80;99.90;20.90;98818.00;;;;340399;28;83430;-87
2022/08/15 00:28:46;;;;;;;;;;;20.80;99.90;20.90;98813.00;;;;339921;28;92496;-87
2022/08/15 00:29:07;;;;;;;;;;;20.80;99.90;20.80;98815.00;;;;341755;28;83318;-87
2022/08/15 00:29:21;;;;;;;;;;;20.80;99.90;20.90;98817.00;;;;337240;28;92866;-87
2022/08/15 00:29:51;;;;;;;;;;;20.80;99.90;21.00;98815.00;;;;336443;28;83392;-87
2022/08/15 00:30:04;;;;;;;;;;;20.80;99.90;21.00;98812.00;;;;339946;28;92103;-87
2022/08/15 00:30:16;;;;;;;;;;;20.80;99.90;20.90;98814.00;;;;339065;28;83401;-87
2022/08/15 00:30:36;;;;;;;;;;;20.80;99.90;21.00;98818.00;;;;337441;28;89059;-87
2022/08/15 00:31:09;;;;;;;;;;;20.80;99.90;21.10;98823.00;;;;340374;28;82434;-87
2022/08/15 00:31:22;;;;;;;;;;;20.80;99.90;21.20;98822.00;;;;338791;28;87658;-87
2022/08/15 00:31:55;;;;;;;;;;;20.80;99.90;21.10;98822.00;;;;339641;28;85284;-86
2022/08/15 00:32:12;;;;;;;;;;;20.90;99.90;20.90;98816.00;;;;339987;28;91081;-87
2022/08/15 00:32:53;;;;;;;;;;;20.80;99.90;20.80;98819.00;;;;340384;28;83499;-87
2022/08/15 00:33:25;;;;;;;;;;;20.80;99.90;20.90;98818.00;;;;339938;28;91396;-87
2022/08/15 00:33:40;;;;;;;;;;;20.80;99.90;20.90;98815.00;;;;341647;27;83414;-87
2022/08/15 00:33:54;;;;;;;;;;;20.80;99.90;20.90;98812.00;;;;344280;28;90541;-87
2022/08/15 00:34:07;;;;;;;;;;;20.80;99.90;20.90;98816.00;;;;346083;28;83482;-87
2022/08/15 00:34:38;;;;;;;;;;;20.80;99.90;20.70;98820.00;;;;337328;28;91464;-87
2022/08/15 00:34:51;;;;;;;;;;;20.80;99.90;20.70;98812.00;;;;344656;28;82494;-87
2022/08/15 00:35:36;;;;;;;;;;;20.80;99.90;20.70;98815.00;;;;338460;28;92287;-87
2022/08/15 00:35:42;;;;;;;;;;;20.80;99.90;20.60;98811.00;;;;337530;28;83306;-86
2022/08/15 00:36:15;;;;;;;;;;;20.80;99.90;20.60;98820.00;;;;342826;28;90824;-87
2022/08/15 00:36:50;;;;;;;;;;;20.70;99.90;20.70;98814.00;;;;337712;28;84066;-87
2022/08/15 00:37:05;;;;;;;;;;;20.70;99.90;20.70;98814.00;;;;338321;28;92707;-87
2022/08/15 00:37:19;;;;;;;;;;;20.70;99.90;20.60;98808.00;;;;339130;28;83406;-87
2022/08/15 00:37:32;;;;;;;;;;;20.70;99.90;20.70;98809.00;;;;338661;28;91951;-87
2022/08/15 00:38:04;;;;;;;;;;;20.70;99.90;20.60;98805.00;;;;340424;28;83767;-87
2022/08/15 00:38:25;;;;;;;;;;;20.70;99.90;20.60;98805.00;;;;339874;28;91930;-87
2022/08/15 00:38:50;;;;;;;;;;;20.70;99.90;20.70;98807.00;;;;339047;28;83440;-87
2022/08/15 00:39:02;;;;;;;;;;;20.70;99.90;20.70;98804.00;;;;338638;28;92037;-87
2022/08/15 00:39:16;;;;;;;;;;;20.70;99.90;20.70;98808.00;;;;337759;28;82496;-87
2022/08/15 00:39:28;;;;;;;;;;;20.70;99.90;20.70;98810.00;;;;338739;28;89129;-87
2022/08/15 00:39:45;;;;;;;;;;;20.70;99.90;20.70;98801.00;;;;339290;28;83518;-87
2022/08/15 00:40:07;;;;;;;;;;;20.70;99.90;20.70;98808.00;;;;337241;28;92952;-87
2022/08/15 00:40:28;;;;;;;;;;;20.70;99.90;20.60;98807.00;;;;339048;28;83462;-87
2022/08/15 00:41:50;;;;;;;;;;;20.70;99.90;20.70;98811.00;;;;338696;28;89154;-87
2022/08/15 00:42:05;;;;;;;;;;;20.60;99.90;20.80;98806.00;;;;338984;28;83394;-86
2022/08/15 00:42:19;;;;;;;;;;;20.70;99.90;20.80;98806.00;;;;339880;28;90103;-87
2022/08/15 00:42:36;;;;;;;;;;;20.70;99.90;20.80;98807.00;;;;340452;28;82423;-87
2022/08/15 00:42:48;;;;;;;;;;;20.70;99.90;20.80;98798.00;;;;338666;28;88546;-87
2022/08/15 00:43:01;;;;;;;;;;;20.70;99.90;20.80;98805.00;;;;338994;28;83483;-87
2022/08/15 00:43:15;;;;;;;;;;;20.70;99.90;20.80;98807.00;;;;338580;28;93212;-87
2022/08/15 00:43:27;;;;;;;;;;;20.70;99.90;20.80;98812.00;;;;337916;28;83292;-87
2022/08/15 00:43:44;;;;;;;;;;;20.70;99.90;20.80;98813.00;;;;341311;28;88928;-87
2022/08/15 00:43:59;;;;;;;;;;;20.70;99.90;20.90;98811.00;;;;340487;28;83404;-87
2022/08/15 00:44:21;;;;;;;;;;;20.70;99.90;20.80;98811.00;;;;338687;28;91098;-87
2022/08/15 00:44:54;;;;;;;;;;;20.70;99.90;20.80;98809.00;;;;340316;28;83494;-87
2022/08/15 00:45:20;;;;;;;;;;;20.70;99.90;20.90;98811.00;;;;340813;28;92612;-87
2022/08/15 00:45:32;;;;;;;;;;;20.70;99.90;20.90;98810.00;;;;339149;28;83252;-87
2022/08/15 00:45:45;;;;;;;;;;;20.70;99.90;20.90;98810.00;;;;337799;28;92220;-87
2022/08/15 00:46:08;;;;;;;;;;;20.70;99.90;20.80;98812.00;;;;340346;28;83377;-87
2022/08/15 00:46:34;;;;;;;;;;;20.70;99.90;21.00;98811.00;;;;339980;28;91515;-87
2022/08/15 00:46:57;;;;;;;;;;;20.70;99.90;20.80;98807.00;;;;339050;28;83391;-87
2022/08/15 00:47:13;;;;;;;;;;;20.70;99.90;20.80;98807.00;;;;339927;28;92029;-87
2022/08/15 00:47:24;;;;;;;;;;;20.80;99.90;20.70;98814.00;;;;339215;28;82535;-87
2022/08/15 00:48:41;;;;;;;;;;;20.70;99.90;20.60;98817.00;;;;339707;28;91917;-86
2022/08/15 00:48:53;;;;;;;;;;;20.70;99.90;20.80;98811.00;;;;338639;28;89540;-86
2022/08/15 00:49:07;;;;;;;;;;;20.70;99.90;20.80;98806.00;;;;337760;28;83530;-87
2022/08/15 00:49:24;;;;;;;;;;;20.70;99.90;20.80;98809.00;;;;340076;28;89880;-87
2022/08/15 00:49:37;;;;;;;;;;;20.70;99.90;20.80;98812.00;;;;338619;28;83375;-86
2022/08/15 00:50:12;;;;;;;;;;;20.70;99.90;20.80;98807.00;;;;336001;28;92568;-87
2022/08/15 00:50:44;;;;;;;;;;;20.70;99.90;20.80;98805.00;;;;339068;28;83418;-87
2022/08/15 00:50:57;;;;;;;;;;;20.70;99.90;20.70;98808.00;;;;337171;28;92247;-85
2022/08/15 00:51:31;;;;;;;;;;;20.70;99.90;20.80;98815.00;;;;337785;28;83235;-86
2022/08/15 00:51:51;;;;;;;;;;;20.70;99.90;20.90;98810.00;;;;338608;28;89400;-86
2022/08/15 00:52:19;;;;;;;;;;;20.70;99.90;20.80;98805.00;;;;337751;28;83533;-87
2022/08/15 00:52:41;;;;;;;;;;;20.70;99.90;20.80;98811.00;;;;335797;28;89261;-86
2022/08/15 00:52:53;;;;;;;;;;;20.70;99.90;20.80;98807.00;;;;339052;28;83466;-87
2022/08/15 00:53:06;;;;;;;;;;;20.70;99.90;20.80;98802.00;;;;337278;28;90862;-86
2022/08/15 00:53:18;;;;;;;;;;;20.70;99.90;20.80;98805.00;;;;336546;28;82381;-87
2022/08/15 00:53:30;;;;;;;;;;;20.70;99.90;20.90;98793.00;;;;339965;28;89793;-87
2022/08/15 00:53:47;;;;;;;;;;;20.70;99.90;20.90;98800.00;;;;339028;28;82494;-87
2022/08/15 00:54:04;;;;;;;;;;;20.70;99.90;20.80;98794.00;;;;338632;28;91321;-87
2022/08/15 00:54:39;;;;;;;;;;;20.70;99.90;20.70;98798.00;;;;340476;28;83287;-87
2022/08/15 00:55:12;;;;;;;;;;;20.70;99.90;20.60;98805.00;;;;340014;28;89494;-87
2022/08/15 00:55:27;;;;;;;;;;;20.70;99.90;20.60;98797.00;;;;337593;28;83491;-87
2022/08/15 00:55:41;;;;;;;;;;;20.70;99.90;20.70;98806.00;;;;345484;28;92568;-86
2022/08/15 00:55:53;;;;;;;;;;;20.60;99.90;20.70;98806.00;;;;346038;28;83320;-87
2022/08/15 00:56:06;;;;;;;;;;;20.60;99.90;20.70;98800.00;;;;344319;28;87991;-87
2022/08/15 00:56:46;;;;;;;;;;;20.60;99.90;20.60;98794.00;;;;339114;28;83412;-87
2022/08/15 00:57:23;;;;;;;;;;;20.60;99.90;20.70;98802.00;;;;338420;28;92798;-87
2022/08/15 00:57:55;;;;;;;;;;;20.60;99.90;20.80;98809.00;;;;339048;28;83441;-87
2022/08/15 00:58:12;;;;;;;;;;;20.70;99.90;20.80;98804.00;;;;338693;28;89534;-86
2022/08/15 00:58:43;;;;;;;;;;;20.60;99.90;20.70;98799.00;;;;338875;28;82545;-87
2022/08/15 00:59:08;;;;;;;;;;;20.60;99.90;20.70;98803.00;;;;338875;28;90471;-87
2022/08/15 00:59:24;;;;;;;;;;;20.70;99.90;20.90;98802.00;;;;346102;28;83368;-87
2022/08/15 00:59:46;;;;;;;;;;;20.70;99.90;20.90;98795.00;;;;346972;28;87730;-87
2022/08/15 01:00:15;;;;;;;;;;;20.70;99.90;20.80;98802.00;;;;346027;28;83366;-87
2022/08/15 01:00:47;;;;;;;;;;;20.70;99.90;20.90;98803.00;;;;344154;28;91997;-87
2022/08/15 01:01:01;;;;;;;;;;;20.70;99.90;20.90;98800.00;;;;344619;28;83502;-86
2022/08/15 01:01:14;;;;;;;;;;;20.70;99.90;20.80;98796.00;;;;344208;28;91850;-87
2022/08/15 01:01:28;;;;;;;;;;;20.70;99.90;20.80;98797.00;;;;346058;28;82584;-87
2022/08/15 01:01:43;;;;;;;;;;;20.70;99.90;20.80;98800.00;;;;345537;28;92462;-87
2022/08/15 01:02:14;;;;;;;;;;;20.70;99.90;20.90;98797.00;;;;348539;27;83943;-86
2022/08/15 01:02:46;;;;;;;;;;;20.60;99.90;20.70;98801.00;;;;346899;28;91436;-86
2022/08/15 01:02:59;;;;;;;;;;;20.70;99.90;20.60;98795.00;;;;345947;28;82521;-87
2022/08/15 01:03:17;;;;;;;;;;;20.60;99.90;20.70;98792.00;;;;344231;28;91829;-87
2022/08/15 01:03:32;;;;;;;;;;;20.60;99.90;20.60;98796.00;;;;344780;28;82162;-87
2022/08/15 01:04:05;;;;;;;;;;;20.60;99.90;20.80;98804.00;;;;346980;28;91400;-87
2022/08/15 01:04:28;;;;;;;;;;;20.60;99.90;20.70;98793.00;;;;345996;28;83386;-87
2022/08/15 01:04:45;;;;;;;;;;;20.60;99.90;20.70;98795.00;;;;344144;28;93049;-87
2022/08/15 01:05:05;;;;;;;;;;;20.60;99.90;20.70;98799.00;;;;347275;28;83461;-87
2022/08/15 01:05:26;;;;;;;;;;;20.60;99.90;20.90;98791.00;;;;342844;28;87892;-87
2022/08/15 01:05:40;;;;;;;;;;;20.60;99.90;20.80;98797.00;;;;343138;28;83543;-87
2022/08/15 01:05:57;;;;;;;;;;;20.60;99.90;20.80;98795.00;;;;345699;28;89420;-87
2022/08/15 01:06:09;;;;;;;;;;;20.60;99.90;20.90;98794.00;;;;345998;28;83541;-86
2022/08/15 01:06:21;;;;;;;;;;;20.60;99.90;20.90;98784.00;;;;345535;28;89090;-86
2022/08/15 01:06:39;;;;;;;;;;;20.60;99.90;20.80;98791.00;;;;345984;28;83367;-86
2022/08/15 01:06:51;;;;;;;;;;;20.70;99.90;20.70;98785.00;;;;345529;28;92210;-87
2022/08/15 01:07:07;;;;;;;;;;;20.70;99.90;20.80;98778.00;;;;343207;28;83465;-87
2022/08/15 01:07:19;;;;;;;;;;;20.70;99.90;20.80;98788.00;;;;341555;28;89879;-87
2022/08/15 01:07:34;;;;;;;;;;;20.70;99.90;20.90;98780.00;;;;345934;28;83452;-87
2022/08/15 01:07:48;;;;;;;;;;;20.70;99.90;20.90;98787.00;;;;345531;28;92031;-86
2022/08/15 01:08:03;;;;;;;;;;;20.60;99.90;20.90;98781.00;;;;341861;28;83963;-87
2022/08/15 01:08:16;;;;;;;;;;;20.70;99.90;20.90;98783.00;;;;344201;28;91878;-87
2022/08/15 01:08:32;;;;;;;;;;;20.70;99.90;20.90;98776.00;;;;347483;28;83400;-87
2022/08/15 01:08:50;;;;;;;;;;;20.70;99.90;20.80;98782.00;;;;345523;28;87776;-86
2022/08/15 01:09:03;;;;;;;;;;;20.70;99.90;20.70;98787.00;;;;347326;27;83575;-87
2022/08/15 01:09:22;;;;;;;;;;;20.60;99.90;20.60;98781.00;;;;340005;28;92095;-86
2022/08/15 01:09:36;;;;;;;;;;;20.60;99.90;20.50;98780.00;;;;339021;28;82401;-87
2022/08/15 01:09:54;;;;;;;;;;;20.60;99.90;20.50;98782.00;;;;339905;28;90843;-87
2022/08/15 01:10:07;;;;;;;;;;;20.60;99.90;20.40;98777.00;;;;340377;28;82512;-87
2022/08/15 01:10:36;;;;;;;;;;;20.60;99.90;20.50;98782.00;;;;338646;28;92189;-87
2022/08/15 01:10:48;;;;;;;;;;;20.60;99.90;20.60;98781.00;;;;340340;28;83188;-87
2022/08/15 01:11:19;;;;;;;;;;;20.60;99.90;20.70;98782.00;;;;338439;28;92044;-87
2022/08/15 01:11:36;;;;;;;;;;;20.60;99.90;20.60;98782.00;;;;338621;28;83326;-86
2022/08/15 01:12:03;;;;;;;;;;;20.60;99.90;20.50;98780.00;;;;338703;28;88957;-87
2022/08/15 01:12:19;;;;;;;;;;;20.50;99.90;20.60;98780.00;;;;338965;28;83404;-86
2022/08/15 01:12:32;;;;;;;;;;;20.50;99.90;20.60;98778.00;;;;338795;28;89075;-87
2022/08/15 01:12:44;;;;;;;;;;;20.60;99.90;20.50;98770.00;;;;340460;28;83427;-86
2022/08/15 01:12:56;;;;;;;;;;;20.60;99.90;20.50;98771.00;;;;338582;28;90615;-87
2022/08/15 01:13:08;;;;;;;;;;;20.50;99.90;20.60;98771.00;;;;337693;28;83413;-87
2022/08/15 01:13:40;;;;;;;;;;;20.60;99.90;20.80;98776.00;;;;337156;28;91853;-86
2022/08/15 01:14:12;;;;;;;;;;;20.60;99.90;20.70;98774.00;;;;337713;28;83456;-87
2022/08/15 01:14:49;;;;;;;;;;;20.60;99.90;20.60;98768.00;;;;341028;28;90322;-87
2022/08/15 01:15:11;;;;;;;;;;;20.50;99.90;20.50;98770.00;;;;341446;28;83467;-87
2022/08/15 01:15:27;;;;;;;;;;;20.60;99.90;20.70;98771.00;;;;338043;28;91833;-87
2022/08/15 01:15:53;;;;;;;;;;;20.60;99.90;20.60;98769.00;;;;340373;28;83480;-87
2022/08/15 01:16:05;;;;;;;;;;;20.60;99.90;20.70;98769.00;;;;338599;28;90615;-87
2022/08/15 01:16:18;;;;;;;;;;;20.50;99.90;20.60;98765.00;;;;338959;28;82381;-87
2022/08/15 01:16:47;;;;;;;;;;;20.60;99.90;20.50;98768.00;;;;339916;28;89870;-87
2022/08/15 01:16:59;;;;;;;;;;;20.60;99.90;20.60;98765.00;;;;339035;28;83439;-87
2022/08/15 01:17:11;;;;;;;;;;;20.50;99.90;20.50;98768.00;;;;338679;28;88836;-87
2022/08/15 01:17:23;;;;;;;;;;;20.50;99.90;20.50;98758.00;;;;339156;28;83227;-88
2022/08/15 01:17:37;;;;;;;;;;;20.50;99.90;20.50;98768.00;;;;339690;28;92286;-86
2022/08/15 01:18:04;;;;;;;;;;;20.60;99.90;20.40;98767.00;;;;340362;28;83406;-87
2022/08/15 01:18:36;;;;;;;;;;;20.50;99.90;20.30;98768.00;;;;339975;28;91997;-87
2022/08/15 01:18:48;;;;;;;;;;;20.50;99.90;20.30;98766.00;;;;340300;28;82467;-86
2022/08/15 01:19:27;;;;;;;;;;;20.50;99.90;20.30;98774.00;;;;339991;28;89069;-86
2022/08/15 01:20:02;;;;;;;;;;;20.50;99.90;20.30;98773.00;;;;336174;28;82567;-87
2022/08/15 01:20:24;;;;;;;;;;;20.50;99.90;20.40;98767.00;;;;336972;28;89704;-87
2022/08/15 01:20:36;;;;;;;;;;;20.40;99.90;20.40;98767.00;;;;337640;28;83456;-86
2022/08/15 01:20:51;;;;;;;;;;;20.40;99.90;20.40;98769.00;;;;338195;28;92623;-87
2022/08/15 01:21:28;;;;;;;;;;;20.40;99.90;20.30;98778.00;;;;336288;28;83406;-86
2022/08/15 01:22:00;;;;;;;;;;;20.40;99.90;20.50;98778.00;;;;335907;28;89053;-87
2022/08/15 01:22:25;;;;;;;;;;;20.40;99.90;20.40;98778.00;;;;341826;28;82446;-87
2022/08/15 01:22:58;;;;;;;;;;;20.40;99.90;20.40;98779.00;;;;342784;28;91090;-87
2022/08/15 01:23:25;;;;;;;;;;;20.40;99.90;20.60;98776.00;;;;343188;28;83432;-87
2022/08/15 01:24:14;;;;;;;;;;;20.40;99.90;20.40;98777.00;;;;335936;28;91502;-87
2022/08/15 01:24:53;;;;;;;;;;;20.40;99.90;20.30;98788.00;;;;336354;28;82571;-87
2022/08/15 01:25:38;;;;;;;;;;;20.40;99.90;20.30;98794.00;;;;335855;28;93283;-87
2022/08/15 01:26:09;;;;;;;;;;;20.40;99.90;20.40;98788.00;;;;336374;28;83430;-87
2022/08/15 01:26:41;;;;;;;;;;;20.40;99.90;20.40;98794.00;;;;337222;28;91768;-86
2022/08/15 01:26:56;;;;;;;;;;;20.40;99.90;20.40;98794.00;;;;336362;28;82566;-87
2022/08/15 01:27:10;;;;;;;;;;;20.40;99.90;20.50;98793.00;;;;333428;29;92989;-87
2022/08/15 01:27:23;;;;;;;;;;;20.40;99.90;20.60;98793.00;;;;335116;28;83497;-87
2022/08/15 01:28:00;;;;;;;;;;;20.40;99.90;20.60;98787.00;;;;335979;28;90702;-87
2022/08/15 01:28:21;;;;;;;;;;;20.40;99.90;20.70;98786.00;;;;335172;29;82555;-87
2022/08/15 01:28:45;;;;;;;;;;;20.40;99.90;20.50;98787.00;;;;335968;28;91294;-87
2022/08/15 01:29:02;;;;;;;;;;;20.40;99.90;20.50;98788.00;;;;340500;28;83443;-86
2022/08/15 01:29:16;;;;;;;;;;;20.40;99.90;20.40;98795.00;;;;339985;28;93189;-87
2022/08/15 01:29:28;;;;;;;;;;;20.40;99.90;20.40;98792.00;;;;340150;28;82424;-86
2022/08/15 01:29:44;;;;;;;;;;;20.40;99.90;20.30;98794.00;;;;334572;29;92323;-87
2022/08/15 01:29:56;;;;;;;;;;;20.40;99.90;20.30;98795.00;;;;335092;29;83414;-87
2022/08/15 01:30:11;;;;;;;;;;;20.40;99.90;20.30;98795.00;;;;334630;29;91478;-87
2022/08/15 01:30:49;;;;;;;;;;;20.40;99.90;20.30;98797.00;;;;336059;28;83414;-86
2022/08/15 01:31:18;;;;;;;;;;;20.40;99.90;20.50;98791.00;;;;337217;28;91564;-87
2022/08/15 01:31:31;;;;;;;;;;;20.40;99.90;20.40;98787.00;;;;339116;28;83403;-87
2022/08/15 01:31:46;;;;;;;;;;;20.40;99.90;20.40;98791.00;;;;344178;28;88981;-87
2022/08/15 01:31:59;;;;;;;;;;;20.40;99.90;20.40;98798.00;;;;343262;28;82468;-86
2022/08/15 01:32:11;;;;;;;;;;;20.40;99.90;20.40;98794.00;;;;342717;28;90851;-86
2022/08/15 01:32:24;;;;;;;;;;;20.40;99.90;20.40;98791.00;;;;343155;28;83490;-86
2022/08/15 01:32:36;;;;;;;;;;;20.40;99.90;20.40;98787.00;;;;342790;28;91663;-86
2022/08/15 01:32:48;;;;;;;;;;;20.40;99.90;20.40;98788.00;;;;343240;28;83416;-87
2022/08/15 01:32:59;;;;;;;;;;;20.30;99.90;20.30;98788.00;;;;341230;28;91441;-87
2022/08/15 01:33:11;;;;;;;;;;;20.40;99.90;20.40;98784.00;;;;341857;28;83322;-86
2022/08/15 01:33:26;;;;;;;;;;;20.40;99.90;20.50;98781.00;;;;342533;28;92510;-87
2022/08/15 01:33:47;;;;;;;;;;;20.40;99.90;20.50;98782.00;;;;343124;28;83468;-86
2022/08/15 01:33:59;;;;;;;;;;;20.40;99.90;20.40;98780.00;;;;342707;28;90853;-85
2022/08/15 01:34:16;;;;;;;;;;;20.40;99.90;20.40;98784.00;;;;343232;28;83419;-87
2022/08/15 01:34:29;;;;;;;;;;;20.40;99.90;20.50;98788.00;;;;343956;28;93089;-87
2022/08/15 01:34:42;;;;;;;;;;;20.40;99.90;20.50;98786.00;;;;343226;28;83430;-87
2022/08/15 01:35:00;;;;;;;;;;;20.40;99.90;20.40;98781.00;;;;342766;28;89010;-87
2022/08/15 01:35:12;;;;;;;;;;;20.40;99.90;20.40;98787.00;;;;341945;28;82394;-86
2022/08/15 01:35:23;;;;;;;;;;;20.40;99.90;20.40;98786.00;;;;341361;28;88849;-86
2022/08/15 01:35:38;;;;;;;;;;;20.40;99.90;20.40;98786.00;;;;343027;28;83392;-87
2022/08/15 01:35:54;;;;;;;;;;;20.40;99.90;20.40;98787.00;;;;342721;28;91334;-87
2022/08/15 01:36:06;;;;;;;;;;;20.40;99.90;20.40;98799.00;;;;340634;28;82569;-87
2022/08/15 01:36:38;;;;;;;;;;;20.40;99.90;20.40;98788.00;;;;341470;28;91637;-87
2022/08/15 01:36:51;;;;;;;;;;;20.40;99.90;20.50;98780.00;;;;341906;28;83360;-87
2022/08/15 01:37:06;;;;;;;;;;;20.40;99.90;20.50;98782.00;;;;340030;28;88815;-87
2022/08/15 01:37:18;;;;;;;;;;;20.40;99.90;20.50;98784.00;;;;341875;28;83332;-87
2022/08/15 01:37:30;;;;;;;;;;;20.40;99.90;20.50;98784.00;;;;341412;28;92128;-87
2022/08/15 01:38:03;;;;;;;;;;;20.40;99.90;20.50;98782.00;;;;343116;28;83385;-87
2022/08/15 01:38:30;;;;;;;;;;;20.40;99.90;20.30;98791.00;;;;342699;28;90976;-87
2022/08/15 01:38:56;;;;;;;;;;;20.40;99.90;20.40;98795.00;;;;340196;28;83524;-87
2022/08/15 01:39:30;;;;;;;;;;;20.40;99.90;20.50;98792.00;;;;341458;28;89188;-86